Time;durP1;ratioP1;P1;durP2;ratioP2;P2;SDS_P1;SDS_P2;PMS_P1;PMS_P2;Temp;Humidity;BMP_temperature;BMP_pressure;BME280_temperature;BME280_humidity;BME280_pressure;Samples;Min_cycle;Max_cycle;Signal;HPM_P1;HPM_P2
2021/08/24 03:31:13;;;;;;;36.70;5.50;;;13.50;99.70;;;;;;5052841;28;20216;-67
2021/08/24 03:33:40;;;;;;;35.70;5.70;;;13.40;99.70;;;;;;5053015;28;20716;-66
2021/08/24 03:36:07;;;;;;;36.13;5.80;;;13.40;99.70;;;;;;5052870;28;20450;-67
2021/08/24 03:38:34;;;;;;;37.47;5.30;;;13.30;99.70;;;;;;5052452;28;20713;-68
2021/08/24 03:41:03;;;;;;;35.70;5.70;;;13.30;99.70;;;;;;5052599;28;20482;-67
2021/08/24 03:43:30;;;;;;;35.80;5.53;;;13.30;99.70;;;;;;5052933;28;20454;-67
2021/08/24 03:45:56;;;;;;;36.83;6.00;;;13.30;99.70;;;;;;5052619;28;20505;-68
2021/08/24 03:48:24;;;;;;;37.27;4.93;;;13.30;99.70;;;;;;5052303;28;20444;-65
2021/08/24 03:50:51;;;;;;;36.63;6.63;;;13.20;99.70;;;;;;5052533;28;20451;-67
2021/08/24 03:53:18;;;;;;;37.63;6.23;;;13.20;99.70;;;;;;5052808;28;20440;-67
2021/08/24 03:55:45;;;;;;;37.13;6.00;;;13.20;99.70;;;;;;5052389;28;20447;-67
2021/08/24 03:58:12;;;;;;;35.57;6.17;;;13.20;99.70;;;;;;5052672;28;20802;-67
2021/08/24 04:00:42;;;;;;;36.40;6.10;;;13.20;99.70;;;;;;5051883;28;20518;-67
2021/08/24 04:03:08;;;;;;;38.17;6.80;;;13.10;99.70;;;;;;5052448;28;20440;-67
2021/08/24 04:05:36;;;;;;;37.40;7.03;;;13.10;99.70;;;;;;5052276;28;20564;-66
2021/08/24 04:08:03;;;;;;;35.57;6.37;;;13.10;99.70;;;;;;5052484;28;20573;-67
2021/08/24 04:10:30;;;;;;;47.17;6.73;;;13.10;99.70;;;;;;5050740;28;20444;-65
2021/08/24 04:12:57;;;;;;;40.03;7.37;;;13.00;99.70;;;;;;5050290;28;20514;-68
2021/08/24 04:15:23;;;;;;;37.80;5.70;;;13.10;99.70;;;;;;5052177;28;20451;-67
2021/08/24 04:17:50;;;;;;;36.93;5.33;;;13.10;99.70;;;;;;5051990;28;20474;-66
2021/08/24 04:20:17;;;;;;;37.07;6.10;;;13.00;99.70;;;;;;5051637;28;20475;-68
2021/08/24 04:22:51;;;;;;;38.77;5.80;;;13.00;99.70;;;;;;5052023;28;20463;-66
2021/08/24 04:25:19;;;;;;;39.07;6.17;;;12.90;99.70;;;;;;5051880;28;20444;-67
2021/08/24 04:27:46;;;;;;;37.83;5.80;;;12.90;99.70;;;;;;5052121;28;20451;-67
2021/08/24 04:30:13;;;;;;;37.40;6.40;;;12.90;99.70;;;;;;5051441;28;20931;-66
2021/08/24 04:32:43;;;;;;;38.73;6.03;;;12.90;99.70;;;;;;5051740;28;21009;-66
2021/08/24 04:35:10;;;;;;;38.30;6.60;;;12.90;99.70;;;;;;5051737;28;20501;-67
2021/08/24 04:37:37;;;;;;;36.00;4.77;;;12.90;99.70;;;;;;5051920;28;20452;-66
2021/08/24 04:40:06;;;;;;;37.50;6.47;;;12.90;99.70;;;;;;5051193;28;20490;-67
2021/08/24 04:42:33;;;;;;;36.23;6.00;;;12.80;99.70;;;;;;5051571;28;20474;-67
2021/08/24 04:45:00;;;;;;;36.70;6.07;;;12.90;99.70;;;;;;5051355;28;20444;-67
2021/08/24 04:47:27;;;;;;;36.50;5.73;;;12.80;99.70;;;;;;5051545;28;20824;-66
2021/08/24 04:49:53;;;;;;;37.80;6.43;;;12.80;99.70;;;;;;5051010;28;20446;-67
2021/08/24 04:52:20;;;;;;;36.40;5.27;;;12.90;99.70;;;;;;5051299;28;20467;-67
2021/08/24 04:54:47;;;;;;;39.97;6.50;;;12.90;99.70;;;;;;5051263;28;20542;-66
2021/08/24 04:57:15;;;;;;;38.80;6.40;;;12.90;99.70;;;;;;5051278;28;20943;-67
2021/08/24 04:59:42;;;;;;;38.70;6.63;;;13.00;99.70;;;;;;5050775;28;20802;-67
2021/08/24 05:02:09;;;;;;;40.33;7.70;;;13.00;99.70;;;;;;5051129;28;20466;-67
2021/08/24 05:04:35;;;;;;;38.47;6.20;;;13.10;99.70;;;;;;5051150;28;20473;-66
2021/08/24 05:07:02;;;;;;;38.70;8.37;;;13.10;99.70;;;;;;5051101;28;20450;-68
2021/08/24 05:09:29;;;;;;;38.60;6.90;;;13.10;99.70;;;;;;5050789;28;20443;-67
2021/08/24 05:11:56;;;;;;;37.67;7.57;;;13.30;99.70;;;;;;5049046;28;20464;-66
2021/08/24 05:14:25;;;;;;;38.40;7.47;;;13.30;99.70;;;;;;5050726;28;20436;-67
2021/08/24 05:16:54;;;;;;;43.83;8.60;;;13.30;99.70;;;;;;5051063;28;20440;-67
2021/08/24 05:19:21;;;;;;;40.70;7.97;;;13.30;99.70;;;;;;5050486;28;20490;-67
2021/08/24 05:21:48;;;;;;;41.30;8.73;;;13.30;99.70;;;;;;5050424;28;20533;-68
2021/08/24 05:24:15;;;;;;;40.30;7.47;;;13.40;99.70;;;;;;5050694;28;20466;-68
2021/08/24 05:26:42;;;;;;;40.47;7.03;;;13.40;99.70;;;;;;5050961;28;20450;-67
2021/08/24 05:29:08;;;;;;;37.67;7.50;;;13.50;99.70;;;;;;5050218;28;20447;-67
2021/08/24 05:31:36;;;;;;;38.67;7.57;;;13.60;99.70;;;;;;5050451;28;20994;-67
2021/08/24 05:34:04;;;;;;;41.77;6.80;;;13.70;99.70;;;;;;5050437;28;20452;-67
2021/08/24 05:36:31;;;;;;;39.17;7.53;;;13.60;99.70;;;;;;5050606;28;20447;-67
2021/08/24 05:38:58;;;;;;;38.20;7.00;;;13.70;99.70;;;;;;5050168;28;20474;-67
2021/08/24 05:41:25;;;;;;;38.20;6.33;;;13.70;99.70;;;;;;5050533;28;20483;-67
2021/08/24 05:43:51;;;;;;;38.27;7.40;;;13.70;99.70;;;;;;5050466;28;20440;-67
2021/08/24 05:46:18;;;;;;;37.93;7.60;;;13.80;99.70;;;;;;5050735;28;20456;-67
2021/08/24 05:48:46;;;;;;;37.30;6.70;;;13.90;99.70;;;;;;5050030;28;20451;-67
2021/08/24 05:51:15;;;;;;;39.63;7.73;;;13.90;99.70;;;;;;5050245;28;20522;-66
2021/08/24 05:53:42;;;;;;;40.17;8.00;;;13.90;99.70;;;;;;5050441;28;20447;-67
2021/08/24 05:56:09;;;;;;;38.47;7.07;;;13.80;99.70;;;;;;5050296;28;20443;-67
2021/08/24 05:58:36;;;;;;;39.13;6.97;;;13.90;99.70;;;;;;5049857;28;20455;-67
2021/08/24 06:01:04;;;;;;;37.70;6.40;;;14.10;99.70;;;;;;5050068;28;20475;-67
2021/08/24 06:03:30;;;;;;;39.27;6.67;;;14.10;99.70;;;;;;5050249;28;20935;-67
2021/08/24 06:05:59;;;;;;;40.77;7.90;;;14.20;99.70;;;;;;5050112;28;20444;-66
2021/08/24 06:08:26;;;;;;;37.37;6.50;;;14.10;99.70;;;;;;5049855;28;20444;-67
2021/08/24 06:10:53;;;;;;;39.00;6.20;;;14.10;99.70;;;;;;5048884;28;20852;-68
2021/08/24 06:13:20;;;;;;;39.47;7.00;;;14.10;99.70;;;;;;5050031;28;20448;-67
2021/08/24 06:15:46;;;;;;;37.33;6.00;;;14.10;99.70;;;;;;5049879;28;20447;-67
2021/08/24 06:18:13;;;;;;;38.17;6.10;;;14.20;99.70;;;;;;5050206;28;20448;-67
2021/08/24 06:20:41;;;;;;;37.57;6.23;;;14.30;99.70;;;;;;5049565;28;20495;-67
2021/08/24 06:23:09;;;;;;;38.60;6.30;;;14.40;99.70;;;;;;5050013;28;20927;-68
2021/08/24 06:25:36;;;;;;;38.10;5.77;;;14.40;99.70;;;;;;5049953;28;20459;-67
2021/08/24 06:28:03;;;;;;;38.30;5.63;;;14.50;99.70;;;;;;5049936;28;20444;-67
2021/08/24 06:30:29;;;;;;;37.23;5.47;;;14.50;99.70;;;;;;5049398;28;20957;-66
2021/08/24 06:32:58;;;;;;;36.10;4.90;;;14.60;99.70;;;;;;5049758;28;20847;-67
2021/08/24 06:35:25;;;;;;;36.70;5.47;;;14.70;99.70;;;;;;5053425;28;20471;-67
2021/08/24 06:37:51;;;;;;;36.97;5.07;;;14.60;99.70;;;;;;5054085;28;20443;-67
2021/08/24 06:40:20;;;;;;;39.43;6.00;;;14.60;99.70;;;;;;5053412;28;20502;-67
2021/08/24 06:42:48;;;;;;;36.07;5.30;;;14.60;99.70;;;;;;5053851;28;20993;-67
2021/08/24 06:45:19;;;;;;;37.70;5.03;;;14.70;99.70;;;;;;5053603;28;20444;-67
2021/08/24 06:47:46;;;;;;;34.40;4.13;;;14.70;99.70;;;;;;5053947;28;20446;-67
2021/08/24 06:50:13;;;;;;;36.27;4.87;;;14.70;99.70;;;;;;5053341;28;20471;-67
2021/08/24 06:52:40;;;;;;;36.00;4.73;;;14.70;99.70;;;;;;5053665;28;20471;-68
2021/08/24 06:55:08;;;;;;;35.00;4.50;;;14.60;99.70;;;;;;5053397;28;20452;-67
2021/08/24 06:57:37;;;;;;;36.03;4.80;;;14.70;99.70;;;;;;5053730;28;20542;-67
2021/08/24 07:00:06;;;;;;;37.63;4.93;;;14.80;99.70;;;;;;5053038;28;21034;-68
2021/08/24 07:02:33;;;;;;;36.03;4.50;;;14.80;99.70;;;;;;5053378;28;20459;-68
2021/08/24 07:05:01;;;;;;;36.20;4.97;;;14.90;99.70;;;;;;5053296;28;20446;-67
2021/08/24 07:07:28;;;;;;;36.50;4.30;;;14.80;99.70;;;;;;5053520;28;20851;-67
2021/08/24 07:09:54;;;;;;;36.63;5.30;;;14.80;99.70;;;;;;5053046;28;20442;-67
2021/08/24 07:12:21;;;;;;;35.40;4.90;;;14.80;99.70;;;;;;5051972;28;20455;-68
2021/08/24 07:14:49;;;;;;;37.03;4.43;;;14.70;99.70;;;;;;5053155;28;20443;-67
2021/08/24 07:17:16;;;;;;;35.90;4.77;;;14.80;99.70;;;;;;5053411;28;20955;-67
2021/08/24 07:19:43;;;;;;;34.60;4.30;;;14.70;99.70;;;;;;5052902;28;20439;-67
2021/08/24 07:22:09;;;;;;;34.67;4.63;;;14.70;99.70;;;;;;5053049;28;20865;-68
2021/08/24 07:24:36;;;;;;;35.80;4.43;;;14.70;99.70;;;;;;5053048;28;20455;-67
2021/08/24 07:27:03;;;;;;;40.77;5.00;;;14.80;99.70;;;;;;5053027;28;20447;-67
2021/08/24 07:29:30;;;;;;;35.20;4.40;;;14.70;99.70;;;;;;5052699;28;20820;-66
2021/08/24 07:31:58;;;;;;;34.90;4.43;;;14.70;99.70;;;;;;5053942;28;20476;-67
2021/08/24 07:34:25;;;;;;;35.60;4.50;;;14.60;99.70;;;;;;5052918;28;20443;-67
2021/08/24 07:36:52;;;;;;;35.00;4.80;;;14.70;99.70;;;;;;5052876;28;20534;-68
2021/08/24 07:39:19;;;;;;;33.87;4.23;;;14.70;99.70;;;;;;5052344;28;20660;-67
2021/08/24 07:41:46;;;;;;;34.67;4.13;;;14.80;99.70;;;;;;5052614;28;20582;-67
2021/08/24 07:44:12;;;;;;;36.67;6.03;;;14.90;99.70;;;;;;5052581;28;20447;-67
2021/08/24 07:46:39;;;;;;;34.97;4.87;;;15.00;99.70;;;;;;5052715;28;20966;-67
2021/08/24 07:49:07;;;;;;;35.37;4.60;;;15.30;99.70;;;;;;5052162;28;20440;-67
2021/08/24 07:51:34;;;;;;;37.07;5.10;;;15.40;99.70;;;;;;5052770;28;20459;-67
2021/08/24 07:54:01;;;;;;;34.97;5.00;;;15.40;99.70;;;;;;5052374;28;20455;-67
2021/08/24 07:56:29;;;;;;;36.60;5.60;;;15.40;99.70;;;;;;5052553;28;20544;-67
2021/08/24 07:58:56;;;;;;;35.17;4.43;;;15.40;99.70;;;;;;5051897;28;20448;-67
2021/08/24 08:01:23;;;;;;;35.30;4.97;;;15.50;99.70;;;;;;5052050;28;20495;-67
2021/08/24 08:03:49;;;;;;;36.70;5.17;;;15.50;99.70;;;;;;5052147;28;20448;-66
2021/08/24 08:06:17;;;;;;;37.07;5.80;;;15.50;99.70;;;;;;5052400;28;20823;-67
2021/08/24 08:08:44;;;;;;;35.50;6.23;;;15.60;99.70;;;;;;5051787;28;20444;-67
2021/08/24 08:11:11;;;;;;;35.20;4.87;;;15.60;99.70;;;;;;5050821;28;20462;-68
2021/08/24 08:13:39;;;;;;;35.43;5.33;;;15.60;99.70;;;;;;5052208;28;20454;-67
2021/08/24 08:16:06;;;;;;;35.37;5.93;;;15.60;99.70;;;;;;5052114;28;20448;-67
2021/08/24 08:18:33;;;;;;;35.50;5.70;;;15.60;99.70;;;;;;5051746;28;20436;-68
2021/08/24 08:21:00;;;;;;;35.47;5.60;;;15.60;99.70;;;;;;5051899;28;20857;-68
2021/08/24 08:23:28;;;;;;;35.37;5.57;;;15.80;99.70;;;;;;5051982;28;20450;-67
2021/08/24 08:25:54;;;;;;;34.67;5.73;;;16.00;99.70;;;;;;5051814;28;20446;-67
2021/08/24 08:28:21;;;;;;;34.50;6.00;;;15.90;99.70;;;;;;5052098;28;20444;-68
2021/08/24 08:30:48;;;;;;;35.47;5.60;;;15.80;99.70;;;;;;5051811;28;20443;-68
2021/08/24 08:33:15;;;;;;;36.43;5.67;;;16.00;99.70;;;;;;5051938;28;20440;-67
2021/08/24 08:35:42;;;;;;;34.60;5.30;;;16.20;99.70;;;;;;5051642;28;20459;-67
2021/08/24 08:38:09;;;;;;;34.40;5.20;;;16.10;99.70;;;;;;5051870;28;20935;-67
2021/08/24 08:40:46;;;;;;;35.67;5.07;;;16.10;99.70;;;;;;5051136;28;20454;-67
2021/08/24 08:43:26;;;;;;;35.80;5.00;;;16.00;99.70;;;;;;5051722;28;20439;-67
2021/08/24 08:45:55;;;;;;;34.73;5.23;;;16.00;99.70;;;;;;5051556;28;20435;-66
2021/08/24 08:48:37;;;;;;;33.27;4.70;;;16.00;99.70;;;;;;5050852;28;20444;-64
2021/08/24 08:51:12;;;;;;;36.50;6.40;;;15.70;99.70;;;;;;5051361;28;20872;-66
2021/08/24 08:53:46;;;;;;;34.47;6.00;;;15.70;99.70;;;;;;5051585;28;20447;-67
2021/08/24 08:56:31;;;;;;;34.80;5.40;;;15.70;99.70;;;;;;5051095;28;20448;-67
2021/08/24 08:59:05;;;;;;;35.20;5.70;;;15.80;99.70;;;;;;5050980;28;20444;-67
2021/08/24 09:01:38;;;;;;;36.23;5.87;;;15.70;99.70;;;;;;5051104;28;20488;-67
2021/08/24 09:04:15;;;;;;;35.37;5.20;;;15.80;99.70;;;;;;5051304;28;20845;-68
2021/08/24 09:06:44;;;;;;;34.00;4.80;;;15.90;99.70;;;;;;5051258;28;20943;-67
2021/08/24 09:09:12;;;;;;;34.87;5.23;;;15.80;99.70;;;;;;5050602;28;20497;-67
2021/08/24 09:11:44;;;;;;;34.60;5.10;;;15.80;99.70;;;;;;5049794;28;20463;-67
2021/08/24 09:14:17;;;;;;;35.70;5.07;;;15.70;99.70;;;;;;5050990;28;20939;-67
2021/08/24 09:16:48;;;;;;;38.10;6.13;;;15.70;99.70;;;;;;5050805;28;20484;-67
2021/08/24 09:19:17;;;;;;;34.90;5.73;;;15.70;99.70;;;;;;5050570;28;20815;-67
2021/08/24 09:21:46;;;;;;;35.97;6.20;;;15.60;99.70;;;;;;5050800;28;20486;-67
2021/08/24 09:24:15;;;;;;;35.53;5.77;;;15.60;99.70;;;;;;5050723;28;20439;-67
2021/08/24 09:26:53;;;;;;;34.40;5.13;;;15.60;99.70;;;;;;5050885;28;20908;-67
2021/08/24 09:29:24;;;;;;;35.17;5.40;;;15.50;99.70;;;;;;5050366;28;20503;-67
2021/08/24 09:31:51;;;;;;;34.57;6.30;;;15.60;99.70;;;;;;5050701;28;20474;-67
2021/08/24 09:34:22;;;;;;;34.53;5.73;;;15.70;99.70;;;;;;5050585;28;20470;-67
2021/08/24 09:36:49;;;;;;;37.10;5.67;;;15.80;99.70;;;;;;5050863;28;20448;-68
2021/08/24 09:39:16;;;;;;;34.30;5.60;;;15.90;99.70;;;;;;5050116;28;20526;-67
2021/08/24 09:41:49;;;;;;;35.67;5.27;;;16.00;99.70;;;;;;5050522;28;20490;-67
2021/08/24 09:44:23;;;;;;;35.53;6.40;;;16.10;99.70;;;;;;5050709;28;20526;-67
2021/08/24 09:46:51;;;;;;;37.30;4.60;;;16.10;99.70;;;;;;5050683;28;20901;-67
2021/08/24 09:49:36;;;;;;;35.67;5.63;;;16.00;99.70;;;;;;5050102;28;20454;-67
2021/08/24 09:52:07;;;;;;;34.20;5.93;;;16.20;99.70;;;;;;5050745;28;20470;-68
2021/08/24 09:54:37;;;;;;;34.90;5.67;;;16.20;99.70;;;;;;5050505;28;20463;-67
2021/08/24 09:57:07;;;;;;;35.80;5.77;;;16.10;99.70;;;;;;5050583;28;20965;-68
2021/08/24 09:59:39;;;;;;;35.90;5.37;;;16.20;99.70;;;;;;5050006;28;20448;-68
2021/08/24 10:02:07;;;;;;;33.90;5.53;;;16.10;99.70;;;;;;5050232;28;20506;-68
2021/08/24 10:04:50;;;;;;;34.10;5.60;;;16.10;99.70;;;;;;5050724;28;20444;-67
2021/08/24 10:07:32;;;;;;;34.27;5.27;;;16.10;99.70;;;;;;5050287;28;20985;-67
2021/08/24 10:10:00;;;;;;;36.70;6.40;;;16.00;99.70;;;;;;5049202;28;20439;-68
2021/08/24 10:12:29;;;;;;;34.73;5.43;;;16.10;99.70;;;;;;5048983;28;20468;-67
2021/08/24 10:14:57;;;;;;;35.20;5.90;;;16.10;99.70;;;;;;5050098;28;20610;-68
2021/08/24 10:17:29;;;;;;;39.40;6.87;;;16.10;99.70;;;;;;5050210;28;20459;-67
2021/08/24 10:19:57;;;;;;;34.37;5.80;;;16.00;99.70;;;;;;5049823;28;20538;-68
2021/08/24 10:22:29;;;;;;;35.83;5.80;;;16.10;99.70;;;;;;5049913;28;20492;-68
2021/08/24 10:24:59;;;;;;;34.67;5.00;;;16.20;99.70;;;;;;5049933;28;20497;-67
2021/08/24 10:27:29;;;;;;;35.80;6.00;;;16.30;99.70;;;;;;5050219;28;20446;-68
2021/08/24 10:30:01;;;;;;;35.37;6.63;;;16.30;99.70;;;;;;5049785;28;20440;-69
2021/08/24 10:32:33;;;;;;;36.23;6.37;;;16.50;99.70;;;;;;5049863;28;20471;-67
2021/08/24 10:35:08;;;;;;;36.10;5.33;;;16.70;99.70;;;;;;5049891;28;20450;-67
2021/08/24 10:37:41;;;;;;;33.50;5.17;;;16.70;99.70;;;;;;5049973;28;20446;-68
2021/08/24 10:40:38;;;;;;;33.87;5.33;;;16.80;99.70;;;;;;5050173;28;20450;-67
2021/08/24 10:43:18;;;;;;;35.93;5.80;;;16.80;99.70;;;;;;5041023;28;20899;-68
2021/08/24 10:46:03;;;;;;;35.13;5.83;;;16.90;99.70;;;;;;5049631;28;20448;-68
2021/08/24 10:48:34;;;;;;;35.60;6.37;;;17.00;99.70;;;;;;5049457;28;20448;-67
2021/08/24 10:51:08;;;;;;;35.50;5.60;;;17.00;99.70;;;;;;5049574;28;20958;-68
2021/08/24 10:53:43;;;;;;;34.33;4.93;;;17.00;99.70;;;;;;5049764;28;20439;-67
2021/08/24 10:56:18;;;;;;;35.07;5.10;;;17.00;99.70;;;;;;5049805;28;20446;-66
2021/08/24 10:58:55;;;;;;;36.00;5.77;;;17.10;99.70;;;;;;5049224;28;20500;-68
2021/08/24 11:01:28;;;;;;;35.30;5.27;;;17.00;99.70;;;;;;5049384;28;20459;-67
2021/08/24 11:04:21;;;;;;;33.67;5.20;;;17.10;99.70;;;;;;5049627;28;20871;-69
2021/08/24 11:06:56;;;;;;;34.60;5.10;;;17.00;99.70;;;;;;5049617;28;20448;-68
2021/08/24 11:09:35;;;;;;;36.13;5.03;;;17.10;99.70;;;;;;5049165;28;20443;-68
2021/08/24 11:12:14;;;;;;;36.17;5.43;;;17.00;99.70;;;;;;5048301;28;20471;-68
2021/08/24 11:14:55;;;;;;;32.80;4.23;;;17.20;99.70;;;;;;5049447;28;20447;-68
2021/08/24 11:17:31;;;;;;;34.40;4.50;;;17.40;99.70;;;;;;5049537;28;20443;-68
2021/08/24 11:20:09;;;;;;;34.90;4.60;;;17.60;99.70;;;;;;5050232;28;20462;-68
2021/08/24 11:22:53;;;;;;;35.33;5.00;;;17.50;99.70;;;;;;5053052;28;20692;-68
2021/08/24 11:25:30;;;;;;;34.30;4.20;;;17.40;99.70;;;;;;5053004;28;20447;-68
2021/08/24 11:28:03;;;;;;;33.37;4.07;;;17.40;99.70;;;;;;5053186;28;20450;-69
2021/08/24 11:30:37;;;;;;;36.03;4.50;;;17.60;99.70;;;;;;5052608;28;20440;-67
2021/08/24 11:33:09;;;;;;;33.53;4.60;;;17.50;99.70;;;;;;5052978;28;20478;-68
2021/08/24 11:35:51;;;;;;;33.87;3.80;;;17.50;99.70;;;;;;5052841;28;20450;-67
2021/08/24 11:38:22;;;;;;;34.50;5.27;;;17.70;99.70;;;;;;5053038;28;20439;-68
2021/08/24 11:40:58;;;;;;;33.00;4.00;;;17.80;99.70;;;;;;5052869;28;20443;-68
2021/08/24 11:43:32;;;;;;;34.30;3.80;;;17.90;99.70;;;;;;5052744;28;20601;-68
2021/08/24 11:46:05;;;;;;;34.10;3.70;;;17.90;99.70;;;;;;5052807;28;20442;-68
2021/08/24 11:48:37;;;;;;;33.90;4.30;;;17.90;99.70;;;;;;5052482;28;20467;-67
2021/08/24 11:51:08;;;;;;;34.00;4.63;;;17.80;99.70;;;;;;5052777;28;20460;-68
2021/08/24 11:53:42;;;;;;;35.37;4.63;;;17.90;99.70;;;;;;5052887;28;20436;-68
2021/08/24 11:56:26;;;;;;;34.03;4.30;;;18.00;99.70;;;;;;5052858;28;20448;-67
2021/08/24 11:58:53;;;;;;;35.93;4.47;;;18.00;99.70;;;;;;5052049;28;20943;-68
2021/08/24 12:01:23;;;;;;;34.70;3.90;;;18.10;99.70;;;;;;5052362;28;20483;-68
2021/08/24 12:03:54;;;;;;;33.77;3.83;;;18.10;99.70;;;;;;5052238;28;20475;-67
2021/08/24 12:06:25;;;;;;;35.20;4.87;;;18.20;99.70;;;;;;5052501;28;20993;-67
2021/08/24 12:08:57;;;;;;;34.80;4.00;;;18.10;99.70;;;;;;5051955;28;20440;-68
2021/08/24 12:11:39;;;;;;;34.17;4.50;;;18.00;99.70;;;;;;5050978;28;20864;-67
2021/08/24 12:14:19;;;;;;;33.23;4.00;;;17.90;99.70;;;;;;5052162;28;20435;-68
2021/08/24 12:16:57;;;;;;;34.27;4.03;;;18.00;99.70;;;;;;5052282;28;20447;-68
2021/08/24 12:19:25;;;;;;;33.83;4.60;;;17.90;99.70;;;;;;5051625;28;20470;-67
2021/08/24 12:21:55;;;;;;;34.57;4.40;;;17.90;99.70;;;;;;5051865;28;20994;-68
2021/08/24 12:24:52;;;;;;;34.00;4.40;;;17.80;99.70;;;;;;5051938;28;20671;-68
2021/08/24 12:27:55;;;;;;;33.47;4.60;;;17.80;99.70;;;;;;5051972;28;20475;-68
2021/08/24 12:30:25;;;;;;;34.07;5.00;;;17.60;99.70;;;;;;5051499;28;20451;-68
2021/08/24 12:33:28;;;;;;;33.70;4.60;;;17.70;99.70;;;;;;5050857;28;20468;-68
2021/08/24 12:35:56;;;;;;;35.10;4.90;;;17.60;99.70;;;;;;5051794;28;20474;-68
2021/08/24 12:38:46;;;;;;;35.27;5.33;;;17.50;99.70;;;;;;5051410;28;20515;-67
2021/08/24 12:41:45;;;;;;;34.63;4.73;;;17.60;99.70;;;;;;5051671;28;20525;-68
2021/08/24 12:44:23;;;;;;;35.07;5.53;;;17.70;99.70;;;;;;5051560;28;20479;-67
2021/08/24 12:46:50;;;;;;;34.83;5.20;;;17.70;99.70;;;;;;5051799;28;20447;-68
2021/08/24 12:49:41;;;;;;;34.37;5.33;;;17.80;99.70;;;;;;5050971;28;20444;-68
2021/08/24 12:52:36;;;;;;;35.50;5.50;;;18.00;99.70;;;;;;5051452;28;20486;-68
2021/08/24 12:55:42;;;;;;;37.20;5.37;;;18.00;99.70;;;;;;5051262;28;20448;-68
2021/08/24 12:58:15;;;;;;;34.90;5.30;;;18.10;99.70;;;;;;5039032;28;20444;-67
2021/08/24 13:00:44;;;;;;;34.77;5.03;;;18.40;99.70;;;;;;5050781;28;20446;-67
2021/08/24 13:03:24;;;;;;;36.80;5.03;;;18.50;99.70;;;;;;5051367;28;20479;-68
2021/08/24 13:06:16;;;;;;;34.63;4.83;;;18.50;99.70;;;;;;5051278;28;20439;-68
2021/08/24 13:08:44;;;;;;;33.90;4.80;;;18.30;99.70;;;;;;5050813;28;20446;-69
2021/08/24 13:11:34;;;;;;;33.40;3.77;;;18.30;99.70;;;;;;5049972;28;20468;-67
2021/08/24 13:14:04;;;;;;;35.60;4.67;;;18.20;99.70;;;;;;5051100;28;20440;-68
2021/08/24 13:16:36;;;;;;;33.80;4.43;;;18.10;99.70;;;;;;5051271;28;20454;-68
2021/08/24 13:19:14;;;;;;;39.53;4.60;;;18.10;99.70;;;;;;5050615;28;20439;-67
2021/08/24 13:21:50;;;;;;;35.23;4.70;;;18.10;99.70;;;;;;5050946;28;20982;-67
2021/08/24 13:24:23;;;;;;;33.33;4.80;;;18.20;99.70;;;;;;5050870;28;20483;-68
2021/08/24 13:26:54;;;;;;;35.07;5.17;;;18.20;99.70;;;;;;5050984;28;20876;-68
2021/08/24 13:29:26;;;;;;;33.83;4.17;;;18.40;99.70;;;;;;5050546;28;20770;-67
2021/08/24 13:31:57;;;;;;;33.10;4.20;;;18.40;99.70;;;;;;5051866;28;20476;-67
2021/08/24 13:34:33;;;;;;;33.50;4.40;;;18.30;99.70;;;;;;5050577;28;20444;-67
2021/08/24 13:37:00;;;;;;;35.00;4.40;;;18.20;99.70;;;;;;5050794;28;20817;-68
2021/08/24 13:39:27;;;;;;;34.93;4.50;;;18.20;99.70;;;;;;5050233;28;20804;-68
2021/08/24 13:41:56;;;;;;;34.40;3.83;;;18.40;99.70;;;;;;5050678;28;20466;-67
2021/08/24 13:44:28;;;;;;;34.73;4.73;;;18.40;99.70;;;;;;5050181;28;20472;-69
2021/08/24 13:47:01;;;;;;;34.37;4.57;;;18.20;99.70;;;;;;5050678;28;20450;-67
2021/08/24 13:49:28;;;;;;;33.67;4.53;;;18.20;99.70;;;;;;5050248;28;20444;-67
2021/08/24 13:51:58;;;;;;;33.57;4.93;;;18.30;99.70;;;;;;5050364;28;20471;-68
2021/08/24 13:54:30;;;;;;;33.93;4.90;;;18.40;99.70;;;;;;5050152;28;20447;-67
2021/08/24 13:56:57;;;;;;;34.43;4.43;;;18.70;99.70;;;;;;5050470;28;20447;-68
2021/08/24 13:59:28;;;;;;;34.97;4.33;;;18.70;99.70;;;;;;5049865;28;20440;-69
2021/08/24 14:01:57;;;;;;;33.90;4.40;;;18.80;99.70;;;;;;5050607;28;20825;-68
2021/08/24 14:04:29;;;;;;;34.43;4.47;;;18.80;99.70;;;;;;5050389;28;20502;-67
2021/08/24 14:06:59;;;;;;;34.97;4.60;;;18.90;99.70;;;;;;5050465;28;20930;-67
2021/08/24 14:09:35;;;;;;;32.80;4.20;;;19.00;99.70;;;;;;5049728;28;20454;-67
2021/08/24 14:12:04;;;;;;;34.63;4.73;;;19.00;99.70;;;;;;5049038;28;20471;-67
2021/08/24 14:14:37;;;;;;;34.80;4.67;;;18.90;99.70;;;;;;5050089;28;20440;-67
2021/08/24 14:17:04;;;;;;;34.83;4.40;;;18.80;99.70;;;;;;5049906;28;20961;-67
2021/08/24 14:19:34;;;;;;;34.40;4.60;;;18.70;99.70;;;;;;5049582;28;20466;-67
2021/08/24 14:22:05;;;;;;;34.53;4.27;;;18.70;99.70;;;;;;5050212;28;20621;-67
2021/08/24 14:24:34;;;;;;;35.07;4.17;;;18.80;99.70;;;;;;5049988;28;20843;-67
2021/08/24 14:27:02;;;;;;;34.37;4.20;;;18.90;99.70;;;;;;5050089;28;20810;-68
2021/08/24 14:29:29;;;;;;;33.43;4.30;;;19.10;99.70;;;;;;5050056;28;20452;-67
2021/08/24 14:32:00;;;;;;;33.47;4.23;;;19.10;99.70;;;;;;5049911;28;20479;-68
2021/08/24 14:34:39;;;;;;;34.40;4.10;;;18.90;99.70;;;;;;5049907;28;20448;-67
2021/08/24 14:37:13;;;;;;;35.00;4.20;;;18.90;99.70;;;;;;5049991;28;20451;-67
2021/08/24 14:39:43;;;;;;;33.97;3.90;;;18.90;99.70;;;;;;5049597;28;20868;-67
2021/08/24 14:42:23;;;;;;;34.17;3.70;;;18.90;99.70;;;;;;5049915;28;20463;-67
2021/08/24 14:44:51;;;;;;;34.30;4.17;;;18.80;99.70;;;;;;5049840;28;21035;-67
2021/08/24 14:47:33;;;;;;;32.93;3.20;;;18.80;99.70;;;;;;5049856;28;20447;-67
2021/08/24 14:50:01;;;;;;;33.80;4.00;;;18.60;99.70;;;;;;5049635;28;20471;-67
2021/08/24 14:52:34;;;;;;;39.43;5.10;;;18.60;99.70;;;;;;5049764;28;20471;-67
2021/08/24 14:55:06;;;;;;;36.60;4.60;;;18.50;99.70;;;;;;5050826;28;20447;-68
2021/08/24 14:57:44;;;;;;;34.80;4.30;;;18.60;99.70;;;;;;5053813;28;20444;-68
2021/08/24 15:00:30;;;;;;;35.60;4.67;;;18.80;99.70;;;;;;5053305;28;20443;-68
2021/08/24 15:03:00;;;;;;;35.27;4.20;;;18.80;99.70;;;;;;5053524;28;20483;-67
2021/08/24 15:05:33;;;;;;;33.47;4.77;;;18.80;99.70;;;;;;5053336;28;20451;-68
2021/08/24 15:08:03;;;;;;;34.10;3.80;;;18.80;99.70;;;;;;5053724;28;20451;-68
2021/08/24 15:10:29;;;;;;;34.37;3.90;;;18.90;99.70;;;;;;5052945;28;20448;-67
2021/08/24 15:12:57;;;;;;;33.60;4.40;;;18.70;99.70;;;;;;5052262;28;20492;-67
2021/08/24 15:15:30;;;;;;;34.93;4.43;;;18.70;99.70;;;;;;5053231;28;20448;-67
2021/08/24 15:18:00;;;;;;;35.67;5.03;;;18.70;99.70;;;;;;5053785;28;20792;-68
2021/08/24 15:20:29;;;;;;;33.77;3.60;;;18.70;99.70;;;;;;5052846;28;20443;-68
2021/08/24 15:23:00;;;;;;;34.60;4.40;;;18.70;99.70;;;;;;5053194;28;20460;-68
2021/08/24 15:25:29;;;;;;;34.30;4.20;;;18.70;99.70;;;;;;5052986;28;20471;-68
2021/08/24 15:28:01;;;;;;;35.13;4.77;;;18.70;99.70;;;;;;5053469;28;20804;-67
2021/08/24 15:30:28;;;;;;;36.63;5.47;;;18.70;99.70;;;;;;5052634;28;20816;-68
2021/08/24 15:32:59;;;;;;;34.63;5.10;;;18.80;99.70;;;;;;5053013;28;20479;-68
2021/08/24 15:35:28;;;;;;;35.53;4.80;;;18.80;99.70;;;;;;5052824;28;20860;-68
2021/08/24 15:37:58;;;;;;;37.93;5.10;;;18.80;99.70;;;;;;5053153;28;20478;-68
2021/08/24 15:40:25;;;;;;;36.47;5.77;;;18.80;99.70;;;;;;5052472;28;20497;-68
2021/08/24 15:42:52;;;;;;;34.53;4.57;;;18.90;99.70;;;;;;5052716;28;20467;-68
2021/08/24 15:45:25;;;;;;;39.43;5.40;;;18.90;99.70;;;;;;5052607;28;21030;-67
2021/08/24 15:47:52;;;;;;;36.00;4.87;;;18.90;99.70;;;;;;5052997;28;20446;-67
2021/08/24 15:50:21;;;;;;;36.53;6.20;;;18.90;99.70;;;;;;5052232;28;20444;-67
2021/08/24 15:52:48;;;;;;;35.80;4.90;;;19.00;99.70;;;;;;5052697;28;20459;-67
2021/08/24 15:55:25;;;;;;;35.47;4.97;;;18.90;99.70;;;;;;5052496;28;20443;-67
2021/08/24 15:57:51;;;;;;;36.00;5.80;;;18.90;99.70;;;;;;5052915;28;20440;-68
2021/08/24 16:00:19;;;;;;;35.90;5.53;;;18.90;99.70;;;;;;5052294;28;20829;-67
2021/08/24 16:02:45;;;;;;;34.60;4.37;;;18.90;99.70;;;;;;5052483;28;20831;-67
2021/08/24 16:05:16;;;;;;;34.57;5.00;;;18.80;99.70;;;;;;5052196;28;20472;-67
2021/08/24 16:07:44;;;;;;;34.27;4.87;;;18.80;99.70;;;;;;5052525;28;20440;-67
2021/08/24 16:10:11;;;;;;;35.37;5.10;;;18.80;99.70;;;;;;5052067;28;20451;-68
2021/08/24 16:12:39;;;;;;;35.90;4.30;;;18.80;99.70;;;;;;5050999;28;20978;-68
2021/08/24 16:15:07;;;;;;;35.10;4.30;;;18.80;99.70;;;;;;5052018;28;20446;-67
2021/08/24 16:17:35;;;;;;;36.10;5.27;;;18.80;99.70;;;;;;5052185;28;20447;-68
2021/08/24 16:20:04;;;;;;;35.70;4.63;;;18.80;99.70;;;;;;5051721;28;20792;-68
2021/08/24 16:22:35;;;;;;;37.90;5.83;;;18.80;99.70;;;;;;5051883;28;21002;-69
2021/08/24 16:25:07;;;;;;;34.00;5.10;;;18.70;99.70;;;;;;5051813;28;20483;-69